createdAt,value
2023-02-09T00:01:19.748Z,47.10
2023-02-09T00:03:47.585Z,46.30
2023-02-09T00:06:20.681Z,46.63
2023-02-09T00:08:48.079Z,43.53
2023-02-09T00:11:46.865Z,47.23
2023-02-09T00:14:15.691Z,44.90
2023-02-09T00:16:43.044Z,46.10
2023-02-09T00:19:11.205Z,50.33
2023-02-09T00:21:39.485Z,49.10
2023-02-09T00:24:07.305Z,44.23
2023-02-09T00:26:34.555Z,48.70
2023-02-09T00:29:01.378Z,44.30
2023-02-09T00:31:28.782Z,46.93
2023-02-09T00:33:56.280Z,43.83
2023-02-09T00:36:23.279Z,43.63
2023-02-09T00:38:50.211Z,41.10
2023-02-09T00:41:21.003Z,45.37
2023-02-09T00:43:47.803Z,47.17
2023-02-09T00:46:14.682Z,46.13
2023-02-09T00:48:41.676Z,48.73
2023-02-09T00:51:08.530Z,51.63
2023-02-09T00:53:35.402Z,44.00
2023-02-09T00:56:05.163Z,42.40
2023-02-09T00:58:32.062Z,44.77
2023-02-09T01:00:58.839Z,42.47
2023-02-09T01:03:25.734Z,44.43
2023-02-09T01:05:53.517Z,50.13
2023-02-09T01:08:20.397Z,49.53
2023-02-09T01:10:47.595Z,44.27
2023-02-09T01:13:17.854Z,51.27
2023-02-09T01:15:44.697Z,46.43
2023-02-09T01:18:11.571Z,46.07
2023-02-09T01:20:41.268Z,53.03
2023-02-09T01:23:08.494Z,46.87
2023-02-09T01:25:35.310Z,52.50
2023-02-09T01:28:02.385Z,48.30
2023-02-09T01:30:29.514Z,48.80
2023-02-09T01:32:56.335Z,44.67
2023-02-09T01:35:23.319Z,49.27
2023-02-09T01:37:54.817Z,45.40
2023-02-09T01:40:21.813Z,47.70
2023-02-09T01:42:48.909Z,45.77
2023-02-09T01:45:29.870Z,48.10
2023-02-09T01:48:01.793Z,50.70
2023-02-09T01:50:35.958Z,49.27
2023-02-09T01:53:04.356Z,48.30
2023-02-09T01:55:35.154Z,50.80
2023-02-09T01:58:09.607Z,53.30
2023-02-09T02:00:36.868Z,47.87
2023-02-09T02:03:13.936Z,48.83
2023-02-09T02:05:44.997Z,47.77
2023-02-09T02:08:21.285Z,49.03
2023-02-09T02:10:48.372Z,50.70
2023-02-09T02:13:15.553Z,47.83
2023-02-09T02:16:10.975Z,44.43
2023-02-09T02:18:56.743Z,46.67
2023-02-09T02:21:38.858Z,43.53
2023-02-09T02:24:42.766Z,46.93
2023-02-09T02:27:20.879Z,47.43
2023-02-09T02:30:20.027Z,48.17
2023-02-09T02:32:56.417Z,49.03
2023-02-09T02:35:46.498Z,49.27
2023-02-09T02:38:25.512Z,51.57
2023-02-09T02:41:07.365Z,47.07
2023-02-09T02:43:34.304Z,47.17
2023-02-09T02:46:05.902Z,48.00
2023-02-09T02:48:48.312Z,48.97
2023-02-09T02:51:21.822Z,47.17
2023-02-09T02:53:57.446Z,50.30
2023-02-09T02:56:37.119Z,50.97
2023-02-09T02:59:08.351Z,43.60
2023-02-09T03:01:47.569Z,43.30
2023-02-09T03:04:16.384Z,46.60
2023-02-09T03:06:43.421Z,46.30
2023-02-09T03:09:13.398Z,46.47
2023-02-09T03:11:46.900Z,48.63
2023-02-09T03:14:25.730Z,44.10
2023-02-09T03:17:07.353Z,46.60
2023-02-09T03:20:01.058Z,43.60
2023-02-09T03:22:35.793Z,45.43
2023-02-09T03:25:24.277Z,47.33
2023-02-09T03:28:29.427Z,41.60
2023-02-09T03:30:59.109Z,47.93
2023-02-09T03:33:29.778Z,44.47
2023-02-09T03:35:59.430Z,44.13
2023-02-09T03:38:27.740Z,43.70
2023-02-09T03:40:55.631Z,44.00
2023-02-09T03:43:42.480Z,44.67
2023-02-09T03:46:10.188Z,55.00
2023-02-09T03:48:37.258Z,45.63
2023-02-09T03:51:07.055Z,45.03
2023-02-09T03:53:36.770Z,40.17
2023-02-09T03:56:05.082Z,42.73
2023-02-09T03:58:32.179Z,40.73
2023-02-09T04:01:05.548Z,43.73
2023-02-09T04:03:32.841Z,45.50
2023-02-09T04:06:00.120Z,45.33
2023-02-09T04:08:27.563Z,39.87
2023-02-09T04:10:54.531Z,39.70
2023-02-09T04:13:21.447Z,40.47
2023-02-09T04:15:48.401Z,42.73
2023-02-09T04:18:15.207Z,41.10
2023-02-09T04:20:45.311Z,38.93
2023-02-09T04:23:13.182Z,37.57
2023-02-09T04:25:39.989Z,38.33
2023-02-09T04:28:06.929Z,34.30
2023-02-09T04:30:33.871Z,35.00
2023-02-09T04:33:00.764Z,39.77
2023-02-09T04:35:27.605Z,35.50
2023-02-09T04:37:54.602Z,36.13
2023-02-09T04:40:21.574Z,35.07
2023-02-09T04:42:48.510Z,36.90
2023-02-09T04:45:15.519Z,36.77
2023-02-09T04:47:42.534Z,34.47
2023-02-09T04:50:09.823Z,35.63
2023-02-09T04:52:36.817Z,32.63
2023-02-09T04:55:04.050Z,33.80
2023-02-09T04:57:49.450Z,33.67
2023-02-09T05:00:16.684Z,31.80
2023-02-09T05:02:43.759Z,32.93
2023-02-09T05:05:10.763Z,30.73
2023-02-09T05:07:37.767Z,32.90
2023-02-09T05:10:05.160Z,29.20
2023-02-09T05:12:32.180Z,28.83
2023-02-09T05:14:58.996Z,28.30
2023-02-09T05:17:25.953Z,36.93
2023-02-09T05:19:53.005Z,31.77
2023-02-09T05:22:20.006Z,33.57
2023-02-09T05:24:46.797Z,30.60
2023-02-09T05:27:13.820Z,32.20
2023-02-09T05:29:40.682Z,30.10
2023-02-09T05:32:07.728Z,29.03
2023-02-09T05:34:40.011Z,27.83
2023-02-09T05:37:07.053Z,30.10
2023-02-09T05:39:33.969Z,30.57
2023-02-09T05:42:16.130Z,33.77
2023-02-09T05:44:44.575Z,28.47
2023-02-09T05:47:12.341Z,29.20
2023-02-09T05:49:39.352Z,27.60
2023-02-09T05:52:07.424Z,30.63
2023-02-09T05:54:34.945Z,29.47
2023-02-09T05:57:02.196Z,24.37
2023-02-09T05:59:29.193Z,29.97
2023-02-09T06:01:56.226Z,29.40
2023-02-09T06:04:24.184Z,27.70
2023-02-09T06:06:51.200Z,26.47
2023-02-09T06:09:21.148Z,32.83
2023-02-09T06:11:48.548Z,26.10
2023-02-09T06:14:16.088Z,27.50
2023-02-09T06:16:42.958Z,28.23
2023-02-09T06:19:17.962Z,31.87
2023-02-09T06:21:45.562Z,32.37
2023-02-09T06:24:13.464Z,28.27
2023-02-09T06:26:41.490Z,25.17
2023-02-09T06:29:09.615Z,26.63
2023-02-09T06:31:37.001Z,25.20
2023-02-09T06:34:05.910Z,21.37
2023-02-09T06:36:33.253Z,25.60
2023-02-09T06:39:01.093Z,20.30
2023-02-09T06:41:28.150Z,22.83
2023-02-09T06:43:54.997Z,20.87
2023-02-09T06:46:22.010Z,23.30
2023-02-09T06:48:49.456Z,23.97
2023-02-09T06:51:17.835Z,19.43
2023-02-09T06:53:45.055Z,18.33
2023-02-09T06:56:13.202Z,18.17
2023-02-09T06:58:42.862Z,20.27
2023-02-09T07:01:12.363Z,22.10
2023-02-09T07:03:39.828Z,19.43
2023-02-09T07:06:09.548Z,17.97
2023-02-09T07:08:37.062Z,22.77
2023-02-09T07:11:10.247Z,23.80
2023-02-09T07:13:37.784Z,18.20
2023-02-09T07:16:07.005Z,18.63
2023-02-09T07:18:34.104Z,20.20
2023-02-09T07:21:04.178Z,18.80
2023-02-09T07:23:31.198Z,21.40
2023-02-09T07:26:10.498Z,17.80
2023-02-09T07:28:38.078Z,20.07
2023-02-09T07:31:08.831Z,16.73
2023-02-09T07:33:37.515Z,19.30
2023-02-09T07:36:11.872Z,18.33
2023-02-09T07:38:39.544Z,19.63
2023-02-09T07:41:08.209Z,17.30
2023-02-09T07:43:35.443Z,19.27
2023-02-09T07:46:05.054Z,19.27
2023-02-09T07:48:32.340Z,18.50
2023-02-09T07:50:59.871Z,20.00
2023-02-09T07:53:27.390Z,17.97
2023-02-09T07:55:54.699Z,16.73
2023-02-09T07:58:22.170Z,17.83
2023-02-09T08:00:50.377Z,19.17
2023-02-09T08:03:21.248Z,19.87
2023-02-09T08:06:00.901Z,16.87
2023-02-09T08:08:27.848Z,19.10
2023-02-09T08:11:00.584Z,17.00
2023-02-09T08:13:30.572Z,17.47
2023-02-09T08:16:03.207Z,20.47
2023-02-09T08:18:36.420Z,17.13
2023-02-09T08:21:06.808Z,16.87
2023-02-09T08:23:35.434Z,18.27
2023-02-09T08:26:08.015Z,16.67
2023-02-09T08:28:43.626Z,14.97
2023-02-09T08:31:12.377Z,16.57
2023-02-09T08:33:39.497Z,14.63
2023-02-09T08:36:08.693Z,14.80
2023-02-09T08:38:36.298Z,18.70
2023-02-09T08:41:04.789Z,15.33
2023-02-09T08:43:32.468Z,15.00
2023-02-09T08:46:05.624Z,17.43
2023-02-09T08:48:37.747Z,16.43
2023-02-09T08:51:06.535Z,14.27
2023-02-09T08:53:33.780Z,18.00
2023-02-09T08:56:00.950Z,14.57
2023-02-09T08:58:28.623Z,14.97
2023-02-09T09:01:03.256Z,12.47
2023-02-09T09:03:31.919Z,13.60
2023-02-09T09:06:07.650Z,12.27
2023-02-09T09:08:37.311Z,14.20
2023-02-09T09:11:06.633Z,15.20
2023-02-09T09:13:34.002Z,15.00
2023-02-09T09:16:01.308Z,12.80
2023-02-09T09:18:29.034Z,15.80
2023-02-09T09:20:56.553Z,14.73
2023-02-09T09:23:23.386Z,16.23
2023-02-09T09:25:50.227Z,18.27
2023-02-09T09:28:17.705Z,15.00
2023-02-09T09:30:44.713Z,16.93
2023-02-09T09:33:11.857Z,13.00
2023-02-09T09:35:39.092Z,13.27
2023-02-09T09:38:06.051Z,15.57
2023-02-09T09:40:37.470Z,12.40
2023-02-09T09:43:35.396Z,15.40
2023-02-09T09:46:04.278Z,14.67
2023-02-09T09:48:56.612Z,15.73
2023-02-09T09:51:42.085Z,14.60
2023-02-09T09:54:20.632Z,14.47
2023-02-09T09:56:48.484Z,13.70
2023-02-09T09:59:19.546Z,13.63
2023-02-09T10:01:48.091Z,16.70
2023-02-09T10:04:16.354Z,14.63
2023-02-09T10:06:45.677Z,16.63
2023-02-09T10:09:28.816Z,15.83
2023-02-09T10:12:07.799Z,13.83
2023-02-09T10:14:34.736Z,16.47
2023-02-09T10:17:01.630Z,18.03
2023-02-09T10:19:29.493Z,13.17
2023-02-09T10:21:56.569Z,16.33
2023-02-09T10:24:26.270Z,13.37
2023-02-09T10:27:15.163Z,13.30
2023-02-09T10:29:45.505Z,17.77
2023-02-09T10:32:17.076Z,15.20
2023-02-09T10:34:48.529Z,15.63
2023-02-09T10:37:24.385Z,11.80
2023-02-09T10:40:15.990Z,13.83
2023-02-09T10:43:07.381Z,16.87
2023-02-09T10:45:43.015Z,18.20
2023-02-09T10:48:13.057Z,17.67
2023-02-09T10:50:50.180Z,15.83
2023-02-09T10:53:24.426Z,17.50
2023-02-09T10:55:58.540Z,13.97
2023-02-09T10:58:32.958Z,17.47
2023-02-09T11:01:09.407Z,15.73
2023-02-09T11:03:38.191Z,14.43
2023-02-09T11:06:16.290Z,13.83
2023-02-09T11:08:45.834Z,14.50
2023-02-09T11:11:30.228Z,16.13
2023-02-09T11:13:58.116Z,14.90
2023-02-09T11:16:41.764Z,17.23
2023-02-09T11:19:22.895Z,16.40
2023-02-09T11:22:05.248Z,15.93
2023-02-09T11:25:10.246Z,14.17
2023-02-09T11:27:55.457Z,15.27
2023-02-09T11:30:53.706Z,15.03
2023-02-09T11:33:59.587Z,16.03
2023-02-09T11:36:55.747Z,16.43
2023-02-09T11:39:34.669Z,14.00
2023-02-09T11:42:29.979Z,14.80
2023-02-09T11:45:02.946Z,14.17
2023-02-09T11:47:42.690Z,13.70
2023-02-09T11:50:20.578Z,13.97
2023-02-09T11:52:57.948Z,15.10
2023-02-09T11:55:39.651Z,21.43
2023-02-09T11:58:21.619Z,14.03
2023-02-09T12:01:10.043Z,15.80
2023-02-09T12:03:46.615Z,15.73
2023-02-09T12:06:17.383Z,15.27
2023-02-09T12:09:05.197Z,17.10
2023-02-09T12:11:56.726Z,16.80
2023-02-09T12:14:44.414Z,14.07
2023-02-09T12:17:18.690Z,16.47
2023-02-09T12:19:56.420Z,15.93
2023-02-09T12:22:35.609Z,15.17
2023-02-09T12:25:20.099Z,16.80
2023-02-09T12:28:08.960Z,13.83
2023-02-09T12:30:46.581Z,15.57
2023-02-09T12:33:24.060Z,17.97
2023-02-09T12:36:04.919Z,18.43
2023-02-09T12:38:54.496Z,16.33
2023-02-09T12:41:28.332Z,17.80
2023-02-09T12:44:10.290Z,14.80
2023-02-09T12:46:51.617Z,17.67
2023-02-09T12:49:27.715Z,18.57
2023-02-09T12:52:14.527Z,16.17
2023-02-09T12:54:55.739Z,17.73
2023-02-09T12:57:22.678Z,17.47
2023-02-09T12:59:52.819Z,19.47
2023-02-09T13:02:24.459Z,17.33
2023-02-09T13:04:59.537Z,19.07
2023-02-09T13:08:06.028Z,14.80
2023-02-09T13:10:44.454Z,14.80
2023-02-09T13:13:11.372Z,17.00
2023-02-09T13:16:07.022Z,16.77
2023-02-09T13:19:11.160Z,16.67
2023-02-09T13:21:38.188Z,16.07
2023-02-09T13:24:18.616Z,15.33
2023-02-09T13:26:54.314Z,15.43
2023-02-09T13:29:24.002Z,17.93
2023-02-09T13:32:17.003Z,18.13
2023-02-09T13:35:01.848Z,22.97
2023-02-09T13:37:34.576Z,17.77
2023-02-09T13:40:13.075Z,112.80
2023-02-09T13:42:56.575Z,226.37
2023-02-09T13:45:24.917Z,30.93
2023-02-09T13:47:51.837Z,20.80
2023-02-09T13:50:22.462Z,20.43
2023-02-09T13:52:52.720Z,24.97
2023-02-09T13:55:27.416Z,18.27
2023-02-09T13:58:05.655Z,17.40
2023-02-09T14:00:41.840Z,14.80
2023-02-09T14:03:16.912Z,15.70
2023-02-09T14:05:47.293Z,16.37
2023-02-09T14:08:16.895Z,17.57
2023-02-09T14:10:53.292Z,20.30
2023-02-09T14:13:35.248Z,18.97
2023-02-09T14:16:07.043Z,19.53
2023-02-09T14:18:50.463Z,19.47
2023-02-09T14:21:43.748Z,15.47
2023-02-09T14:24:15.442Z,18.93
2023-02-09T14:26:49.444Z,18.47
2023-02-09T14:29:28.574Z,19.37
2023-02-09T14:32:37.760Z,20.83
2023-02-09T14:35:26.224Z,18.43
2023-02-09T14:37:56.571Z,18.07
2023-02-09T14:40:31.091Z,17.63
2023-02-09T14:43:20.198Z,18.73
2023-02-09T14:45:57.381Z,20.33
2023-02-09T14:48:26.740Z,19.33
2023-02-09T14:50:58.565Z,18.47
2023-02-09T14:53:29.889Z,19.47
2023-02-09T14:55:57.943Z,17.73
2023-02-09T14:58:26.050Z,18.30
2023-02-09T15:00:55.198Z,16.17
2023-02-09T15:03:22.178Z,19.60
2023-02-09T15:05:51.754Z,19.33
2023-02-09T15:08:23.821Z,18.80
2023-02-09T15:10:54.359Z,16.90
2023-02-09T15:13:23.581Z,19.87
2023-02-09T15:15:50.649Z,19.93
2023-02-09T15:18:20.824Z,20.63
2023-02-09T15:20:47.903Z,17.57
2023-02-09T15:23:15.323Z,17.70
2023-02-09T15:25:42.618Z,21.20
2023-02-09T15:28:33.346Z,22.20
2023-02-09T15:31:01.491Z,22.47
2023-02-09T15:33:29.559Z,19.47
2023-02-09T15:35:59.218Z,21.33
2023-02-09T15:38:27.913Z,21.90
2023-02-09T15:41:27.072Z,21.70
2023-02-09T15:44:12.645Z,19.03
2023-02-09T15:46:58.120Z,20.77
2023-02-09T15:49:25.108Z,22.30
2023-02-09T15:51:52.171Z,18.67
2023-02-09T15:54:21.935Z,20.17
2023-02-09T15:56:48.837Z,20.73
2023-02-09T15:59:23.720Z,18.27
2023-02-09T16:01:52.116Z,22.57
2023-02-09T16:04:19.108Z,22.90
2023-02-09T16:06:52.806Z,21.23
2023-02-09T16:09:23.683Z,22.57
2023-02-09T16:11:50.595Z,22.07
2023-02-09T16:14:21.171Z,21.43
2023-02-09T16:16:48.523Z,20.90
2023-02-09T16:19:17.057Z,20.30
2023-02-09T16:21:50.959Z,20.03
2023-02-09T16:24:32.778Z,23.17
2023-02-09T16:27:01.996Z,25.13
2023-02-09T16:29:29.266Z,21.57
2023-02-09T16:31:56.295Z,24.93
2023-02-09T16:34:23.436Z,22.20
2023-02-09T16:36:50.379Z,23.07
2023-02-09T16:39:20.325Z,21.53
2023-02-09T16:41:48.336Z,22.40
2023-02-09T16:44:24.582Z,23.20
2023-02-09T16:46:54.519Z,22.63
2023-02-09T16:49:27.399Z,48.70
2023-02-09T16:51:57.973Z,25.60
2023-02-09T16:54:24.840Z,25.37
2023-02-09T16:56:54.627Z,23.90
2023-02-09T16:59:21.970Z,23.37
2023-02-09T17:01:49.203Z,22.07
2023-02-09T17:04:16.270Z,22.10
2023-02-09T17:06:47.879Z,23.13
2023-02-09T17:09:15.866Z,24.50
2023-02-09T17:11:48.280Z,23.13
2023-02-09T17:14:15.527Z,23.90
2023-02-09T17:16:44.885Z,22.63
2023-02-09T17:19:15.772Z,23.00
2023-02-09T17:21:42.993Z,24.60
2023-02-09T17:24:15.586Z,23.60
2023-02-09T17:26:42.621Z,24.20
2023-02-09T17:29:12.782Z,23.27
2023-02-09T17:31:52.909Z,25.57
2023-02-09T17:34:22.221Z,27.43
2023-02-09T17:36:49.409Z,25.93
2023-02-09T17:39:19.100Z,27.90
2023-02-09T17:41:48.578Z,25.67
2023-02-09T17:44:43.388Z,21.93
2023-02-09T17:47:20.778Z,24.63
2023-02-09T17:49:48.094Z,23.77
2023-02-09T17:52:19.977Z,23.80
2023-02-09T17:54:47.520Z,25.90
2023-02-09T17:57:16.578Z,23.83
2023-02-09T17:59:44.127Z,28.17
2023-02-09T18:02:19.969Z,26.67
2023-02-09T18:04:49.620Z,27.17
2023-02-09T18:07:20.727Z,28.07
2023-02-09T18:09:47.889Z,24.97
2023-02-09T18:12:21.677Z,28.33
2023-02-09T18:14:48.939Z,26.03
2023-02-09T18:17:15.933Z,25.50
2023-02-09T18:19:45.986Z,26.37
2023-02-09T18:22:17.224Z,26.37
2023-02-09T18:24:44.541Z,30.53
2023-02-09T18:27:18.337Z,28.60
2023-02-09T18:29:45.397Z,27.23
2023-02-09T18:32:15.474Z,26.80
2023-02-09T18:34:42.689Z,28.77
2023-02-09T18:37:09.441Z,24.73
2023-02-09T18:39:41.974Z,26.43
2023-02-09T18:42:13.237Z,23.83
2023-02-09T18:44:40.170Z,23.47
2023-02-09T18:47:07.740Z,24.80
2023-02-09T18:49:34.771Z,30.57
2023-02-09T18:52:02.537Z,25.50
2023-02-09T18:54:30.111Z,29.27
2023-02-09T18:56:57.375Z,25.63
2023-02-09T18:59:28.694Z,29.67
2023-02-09T19:01:55.909Z,31.17
2023-02-09T19:04:25.081Z,28.70
2023-02-09T19:06:52.551Z,27.47
2023-02-09T19:09:19.625Z,30.43
2023-02-09T19:11:46.452Z,34.17
2023-02-09T19:14:31.890Z,30.53
2023-02-09T19:16:59.014Z,31.47
2023-02-09T19:19:26.533Z,30.00
2023-02-09T19:21:53.517Z,29.60
2023-02-09T19:24:20.659Z,33.53
2023-02-09T19:26:50.574Z,42.30
2023-02-09T19:29:17.830Z,36.57
2023-02-09T19:31:46.669Z,40.03
2023-02-09T19:34:16.481Z,36.43
2023-02-09T19:36:44.549Z,58.20
2023-02-09T19:39:12.209Z,35.77
2023-02-09T19:44:14.498Z,44.13
2023-02-09T19:46:42.869Z,38.77
2023-02-09T19:49:10.487Z,38.27
2023-02-09T19:51:38.134Z,40.03
2023-02-09T19:54:07.578Z,41.43
2023-02-09T19:56:34.991Z,40.30
2023-02-09T19:59:03.462Z,42.73
2023-02-09T20:01:31.764Z,41.80
2023-02-09T20:03:58.960Z,38.87
2023-02-09T20:06:25.864Z,38.13
2023-02-09T20:08:53.042Z,36.90
2023-02-09T20:11:21.336Z,38.97
2023-02-09T20:13:52.659Z,38.83
2023-02-09T20:16:26.458Z,40.70
2023-02-09T20:18:54.311Z,37.93
2023-02-09T20:21:26.174Z,36.50
2023-02-09T20:23:59.133Z,38.20
2023-02-09T20:26:29.712Z,34.17
2023-02-09T20:28:57.690Z,36.33
2023-02-09T20:31:27.563Z,36.07
2023-02-09T20:33:55.166Z,39.93
2023-02-09T20:36:24.526Z,40.87
2023-02-09T20:38:52.616Z,35.20
2023-02-09T20:41:22.399Z,43.70
2023-02-09T20:44:07.677Z,39.43
2023-02-09T20:46:44.087Z,43.57
2023-02-09T20:49:13.954Z,40.47
2023-02-09T20:51:41.139Z,43.17
2023-02-09T20:54:07.963Z,43.10
2023-02-09T20:56:38.238Z,40.97
2023-02-09T20:59:06.543Z,42.20
2023-02-09T21:01:36.533Z,41.83
2023-02-09T21:04:07.637Z,45.57
2023-02-09T21:06:37.189Z,43.70
2023-02-09T21:09:09.462Z,46.80
2023-02-09T21:11:36.536Z,46.57
2023-02-09T21:14:03.714Z,47.13
2023-02-09T21:16:31.447Z,43.33
2023-02-09T21:18:59.339Z,44.23
2023-02-09T21:21:27.635Z,44.97
2023-02-09T21:23:54.779Z,44.83
2023-02-09T21:26:24.359Z,44.30
2023-02-09T21:28:56.312Z,40.73
2023-02-09T21:31:25.772Z,44.67
2023-02-09T21:33:52.725Z,43.93
2023-02-09T21:36:19.855Z,43.23
2023-02-09T21:38:46.772Z,43.97
2023-02-09T21:41:35.931Z,46.93
2023-02-09T21:44:03.341Z,43.10
2023-02-09T21:46:30.381Z,49.37
2023-02-09T21:48:57.305Z,38.43
2023-02-09T21:51:24.684Z,44.90
2023-02-09T21:53:51.898Z,43.47
2023-02-09T21:56:18.952Z,47.47
2023-02-09T21:58:45.852Z,45.10
2023-02-09T22:01:12.920Z,51.30
2023-02-09T22:03:42.462Z,43.27
2023-02-09T22:06:09.775Z,42.60
2023-02-09T22:08:36.832Z,45.93
2023-02-09T22:11:06.283Z,45.30
2023-02-09T22:13:33.475Z,40.87
2023-02-09T22:16:00.841Z,45.50
2023-02-09T22:18:27.745Z,42.03
2023-02-09T22:20:55.005Z,40.67
2023-02-09T22:23:22.141Z,46.63
2023-02-09T22:25:49.010Z,39.07
2023-02-09T22:28:16.189Z,45.33
2023-02-09T22:30:43.299Z,43.67
2023-02-09T22:33:10.248Z,48.17
2023-02-09T22:35:40.820Z,49.80
2023-02-09T22:38:07.646Z,48.83
2023-02-09T22:40:34.537Z,46.90
2023-02-09T22:43:01.392Z,42.83
2023-02-09T22:45:28.457Z,47.40
2023-02-09T22:47:57.971Z,42.30
2023-02-09T22:50:24.814Z,40.80
2023-02-09T22:52:51.860Z,37.80
2023-02-09T22:55:18.720Z,52.10
2023-02-09T22:57:45.837Z,43.47
2023-02-09T23:00:15.561Z,43.63
2023-02-09T23:02:42.739Z,50.50
2023-02-09T23:05:09.799Z,48.30
2023-02-09T23:07:36.682Z,46.37
2023-02-09T23:10:04.328Z,40.60
2023-02-09T23:12:31.492Z,49.60
2023-02-09T23:14:58.528Z,46.47
2023-02-09T23:17:25.488Z,45.07
2023-02-09T23:19:52.384Z,44.63
2023-02-09T23:22:19.704Z,38.83
2023-02-09T23:24:46.684Z,48.60
2023-02-09T23:27:13.681Z,50.40
2023-02-09T23:29:40.690Z,43.07
2023-02-09T23:32:07.580Z,44.03
2023-02-09T23:34:34.322Z,51.47
2023-02-09T23:37:13.163Z,47.33
2023-02-09T23:39:45.836Z,44.63
2023-02-09T23:42:12.744Z,49.87
2023-02-09T23:44:39.741Z,50.73
2023-02-09T23:47:07.771Z,40.20
2023-02-09T23:49:34.873Z,45.43
2023-02-09T23:52:01.739Z,51.93
2023-02-09T23:54:28.736Z,42.60
2023-02-09T23:56:55.833Z,45.90
2023-02-09T23:59:25.420Z,45.30
